CheckWX is a tool to help pilots better visualize weather data.  It is not intended as a substitute for an official pre-flight weather briefing.

16:09:47 UTC

KDED METAR
Deland Municipal-Sidney H Taylor Field Airport
Deland, Florida, USA
Current

15 mins ago

KDED 231555Z AUTO 06009KT 10SM SCT035 SCT049 29/21 A3020 RMK AO2
Observed
May-23 @ 15:55 UTC
Wind
  • 060° at 9 KTS
Visibility
10 SM
Flight Rules
VFR
Cloud Levels
  • Scattered at 3,500' AGL
  • Scattered at 4,900' AGL
Temperature
29°C / 84°F
Dewpoint
21°C / 70°F
Heat Index
31°C / 88°F
Humidity
62%
Altimeter
30.2" Hg
Pressure
1022.72 hPa
Previous

35 mins ago

KDED 231535Z AUTO 06012KT 10SM SCT034 SCT047 29/21 A3020 RMK AO2
Observed
May-23 @ 15:35 UTC
Wind
  • 060° at 12 KTS
Visibility
10 SM
Flight Rules
VFR
Cloud Levels
  • Scattered at 3,400' AGL
  • Scattered at 4,700' AGL
Temperature
29°C / 84°F
Dewpoint
21°C / 70°F
Heat Index
31°C / 88°F
Humidity
62%
Altimeter
30.2" Hg
Pressure
1022.72 hPa
Previous

55 mins ago

KDED 231515Z AUTO 09012KT 10SM BKN034 BKN042 BKN050 30/21 A3020 RMK AO2
Observed
May-23 @ 15:15 UTC
Wind
  • 090° at 12 KTS
Visibility
10 SM
Flight Rules
VFR
Cloud Levels
  • Broken at 3,400' AGL
  • Broken at 4,200' AGL
  • Broken at 5,000' AGL
Temperature
30°C / 86°F
Dewpoint
21°C / 70°F
Heat Index
33°C / 91°F
Humidity
59%
Altimeter
30.2" Hg
Pressure
1022.72 hPa